sensor_id;sensor_type;location;lat;lon;timestamp;temperature;humidity
68476;DHT22;55464;48.266;14.188;2022-12-22T00:01:10;0.80;89.30
68476;DHT22;55464;48.266;14.188;2022-12-22T00:03:55;0.70;89.50
68476;DHT22;55464;48.266;14.188;2022-12-22T00:06:40;0.60;89.70
68476;DHT22;55464;48.266;14.188;2022-12-22T00:09:24;0.60;90.20
68476;DHT22;55464;48.266;14.188;2022-12-22T00:12:12;0.70;90.00
68476;DHT22;55464;48.266;14.188;2022-12-22T00:14:58;0.80;90.10
68476;DHT22;55464;48.266;14.188;2022-12-22T00:17:43;0.80;90.20
68476;DHT22;55464;48.266;14.188;2022-12-22T00:20:27;0.90;90.30
68476;DHT22;55464;48.266;14.188;2022-12-22T00:23:11;0.90;90.30
68476;DHT22;55464;48.266;14.188;2022-12-22T00:25:56;1.00;90.10
68476;DHT22;55464;48.266;14.188;2022-12-22T00:28:41;1.00;89.90
68476;DHT22;55464;48.266;14.188;2022-12-22T00:31:26;1.10;89.90
68476;DHT22;55464;48.266;14.188;2022-12-22T00:34:17;1.10;89.90
68476;DHT22;55464;48.266;14.188;2022-12-22T00:37:03;1.10;89.80
68476;DHT22;55464;48.266;14.188;2022-12-22T00:39:48;1.10;89.80
68476;DHT22;55464;48.266;14.188;2022-12-22T00:42:33;1.10;89.80
68476;DHT22;55464;48.266;14.188;2022-12-22T00:45:17;1.10;89.70
68476;DHT22;55464;48.266;14.188;2022-12-22T00:48:02;1.10;89.80
68476;DHT22;55464;48.266;14.188;2022-12-22T00:50:47;1.10;90.20
68476;DHT22;55464;48.266;14.188;2022-12-22T00:53:31;1.10;90.20
68476;DHT22;55464;48.266;14.188;2022-12-22T00:56:15;1.10;90.40
68476;DHT22;55464;48.266;14.188;2022-12-22T00:59:00;1.00;90.50
68476;DHT22;55464;48.266;14.188;2022-12-22T01:01:44;1.00;90.80
68476;DHT22;55464;48.266;14.188;2022-12-22T01:04:28;1.00;90.80
68476;DHT22;55464;48.266;14.188;2022-12-22T01:07:14;1.00;90.90
68476;DHT22;55464;48.266;14.188;2022-12-22T01:09:59;1.00;90.90
68476;DHT22;55464;48.266;14.188;2022-12-22T01:12:44;1.00;90.80
68476;DHT22;55464;48.266;14.188;2022-12-22T01:15:29;1.00;90.80
68476;DHT22;55464;48.266;14.188;2022-12-22T01:18:14;1.10;90.80
68476;DHT22;55464;48.266;14.188;2022-12-22T01:20:59;1.10;90.80
68476;DHT22;55464;48.266;14.188;2022-12-22T01:23:43;1.10;90.60
68476;DHT22;55464;48.266;14.188;2022-12-22T01:26:27;1.10;90.50
68476;DHT22;55464;48.266;14.188;2022-12-22T01:29:12;1.10;90.70
68476;DHT22;55464;48.266;14.188;2022-12-22T01:31:56;1.10;90.70
68476;DHT22;55464;48.266;14.188;2022-12-22T01:34:40;1.10;90.80
68476;DHT22;55464;48.266;14.188;2022-12-22T01:37:24;1.10;90.70
68476;DHT22;55464;48.266;14.188;2022-12-22T01:40:14;1.10;90.80
68476;DHT22;55464;48.266;14.188;2022-12-22T01:43:00;1.10;90.90
68476;DHT22;55464;48.266;14.188;2022-12-22T01:45:45;1.00;91.00
68476;DHT22;55464;48.266;14.188;2022-12-22T01:48:31;1.10;91.00
68476;DHT22;55464;48.266;14.188;2022-12-22T01:51:20;1.10;91.00
68476;DHT22;55464;48.266;14.188;2022-12-22T01:54:06;1.20;90.80
68476;DHT22;55464;48.266;14.188;2022-12-22T01:56:51;1.20;90.80
68476;DHT22;55464;48.266;14.188;2022-12-22T01:59:35;1.20;90.70
68476;DHT22;55464;48.266;14.188;2022-12-22T02:02:20;1.20;90.20
68476;DHT22;55464;48.266;14.188;2022-12-22T02:05:06;1.20;90.10
68476;DHT22;55464;48.266;14.188;2022-12-22T02:11:06;1.10;90.20
68476;DHT22;55464;48.266;14.188;2022-12-22T02:14:01;1.10;90.30
68476;DHT22;55464;48.266;14.188;2022-12-22T02:17:01;1.00;90.50
68476;DHT22;55464;48.266;14.188;2022-12-22T02:19:53;1.00;90.40
68476;DHT22;55464;48.266;14.188;2022-12-22T02:28:43;1.00;90.20
68476;DHT22;55464;48.266;14.188;2022-12-22T02:31:39;1.00;90.60
68476;DHT22;55464;48.266;14.188;2022-12-22T02:34:23;1.00;90.50
68476;DHT22;55464;48.266;14.188;2022-12-22T02:46:19;1.00;90.50
68476;DHT22;55464;48.266;14.188;2022-12-22T02:49:32;0.90;90.50
68476;DHT22;55464;48.266;14.188;2022-12-22T02:52:18;0.90;90.70
68476;DHT22;55464;48.266;14.188;2022-12-22T02:55:06;0.90;91.00
68476;DHT22;55464;48.266;14.188;2022-12-22T02:57:52;1.00;91.10
68476;DHT22;55464;48.266;14.188;2022-12-22T03:00:38;1.10;91.30
68476;DHT22;55464;48.266;14.188;2022-12-22T03:03:22;1.10;91.30
68476;DHT22;55464;48.266;14.188;2022-12-22T03:06:06;1.20;91.40
68476;DHT22;55464;48.266;14.188;2022-12-22T03:08:50;1.20;91.50
68476;DHT22;55464;48.266;14.188;2022-12-22T03:11:34;1.30;91.60
68476;DHT22;55464;48.266;14.188;2022-12-22T03:14:18;1.30;91.60
68476;DHT22;55464;48.266;14.188;2022-12-22T03:17:03;1.40;91.40
68476;DHT22;55464;48.266;14.188;2022-12-22T03:19:47;1.30;91.10
68476;DHT22;55464;48.266;14.188;2022-12-22T03:22:31;1.30;91.00
68476;DHT22;55464;48.266;14.188;2022-12-22T03:25:15;1.30;90.90
68476;DHT22;55464;48.266;14.188;2022-12-22T03:28:05;1.40;90.80
68476;DHT22;55464;48.266;14.188;2022-12-22T03:30:31;1.40;90.40
68476;DHT22;55464;48.266;14.188;2022-12-22T03:32:57;1.40;90.40
68476;DHT22;55464;48.266;14.188;2022-12-22T03:35:23;1.40;90.50
68476;DHT22;55464;48.266;14.188;2022-12-22T03:37:49;1.30;90.50
68476;DHT22;55464;48.266;14.188;2022-12-22T03:40:14;1.30;90.60
68476;DHT22;55464;48.266;14.188;2022-12-22T03:42:40;1.30;90.80
68476;DHT22;55464;48.266;14.188;2022-12-22T03:45:24;1.30;91.20
68476;DHT22;55464;48.266;14.188;2022-12-22T03:48:08;1.20;91.90
68476;DHT22;55464;48.266;14.188;2022-12-22T03:50:34;1.20;92.20
68476;DHT22;55464;48.266;14.188;2022-12-22T03:53:00;1.10;92.50
68476;DHT22;55464;48.266;14.188;2022-12-22T03:55:25;1.10;92.50
68476;DHT22;55464;48.266;14.188;2022-12-22T03:57:51;1.10;92.60
68476;DHT22;55464;48.266;14.188;2022-12-22T04:00:17;1.10;92.70
68476;DHT22;55464;48.266;14.188;2022-12-22T04:02:42;1.10;92.90
68476;DHT22;55464;48.266;14.188;2022-12-22T04:05:08;1.10;93.00
68476;DHT22;55464;48.266;14.188;2022-12-22T04:07:34;1.00;93.10
68476;DHT22;55464;48.266;14.188;2022-12-22T04:10:00;1.00;93.30
68476;DHT22;55464;48.266;14.188;2022-12-22T04:12:52;1.00;93.50
68476;DHT22;55464;48.266;14.188;2022-12-22T04:15:28;1.00;93.50
68476;DHT22;55464;48.266;14.188;2022-12-22T04:17:55;1.00;93.60
68476;DHT22;55464;48.266;14.188;2022-12-22T04:20:23;1.00;93.60
68476;DHT22;55464;48.266;14.188;2022-12-22T04:22:51;1.00;93.60
68476;DHT22;55464;48.266;14.188;2022-12-22T04:25:17;1.00;93.60
68476;DHT22;55464;48.266;14.188;2022-12-22T04:27:43;1.00;93.60
68476;DHT22;55464;48.266;14.188;2022-12-22T04:30:09;1.00;93.60
68476;DHT22;55464;48.266;14.188;2022-12-22T04:32:35;1.00;93.60
68476;DHT22;55464;48.266;14.188;2022-12-22T04:35:00;1.00;93.50
68476;DHT22;55464;48.266;14.188;2022-12-22T04:37:26;1.00;93.50
68476;DHT22;55464;48.266;14.188;2022-12-22T04:39:51;1.00;93.50
68476;DHT22;55464;48.266;14.188;2022-12-22T04:42:17;1.00;93.40
68476;DHT22;55464;48.266;14.188;2022-12-22T04:44:43;1.00;93.20
68476;DHT22;55464;48.266;14.188;2022-12-22T04:47:08;1.00;93.20
68476;DHT22;55464;48.266;14.188;2022-12-22T04:49:34;1.00;93.10
68476;DHT22;55464;48.266;14.188;2022-12-22T04:52:00;1.00;93.00
68476;DHT22;55464;48.266;14.188;2022-12-22T04:54:25;1.00;93.10
68476;DHT22;55464;48.266;14.188;2022-12-22T04:56:52;1.00;93.00
68476;DHT22;55464;48.266;14.188;2022-12-22T04:59:17;1.00;93.00
68476;DHT22;55464;48.266;14.188;2022-12-22T05:01:43;1.00;92.90
68476;DHT22;55464;48.266;14.188;2022-12-22T05:04:09;0.90;93.00
68476;DHT22;55464;48.266;14.188;2022-12-22T05:06:34;1.10;92.40
68476;DHT22;55464;48.266;14.188;2022-12-22T05:09:00;1.10;92.00
68476;DHT22;55464;48.266;14.188;2022-12-22T05:11:26;1.10;91.90
68476;DHT22;55464;48.266;14.188;2022-12-22T05:13:51;1.10;92.10
68476;DHT22;55464;48.266;14.188;2022-12-22T05:16:17;1.00;92.40
68476;DHT22;55464;48.266;14.188;2022-12-22T05:18:44;1.10;92.40
68476;DHT22;55464;48.266;14.188;2022-12-22T05:21:15;1.10;92.30
68476;DHT22;55464;48.266;14.188;2022-12-22T05:23:41;1.10;92.50
68476;DHT22;55464;48.266;14.188;2022-12-22T05:26:08;1.10;92.60
68476;DHT22;55464;48.266;14.188;2022-12-22T05:28:34;1.00;92.60
68476;DHT22;55464;48.266;14.188;2022-12-22T05:31:05;1.10;93.00
68476;DHT22;55464;48.266;14.188;2022-12-22T05:33:32;1.10;92.60
68476;DHT22;55464;48.266;14.188;2022-12-22T05:35:57;1.00;92.90
68476;DHT22;55464;48.266;14.188;2022-12-22T05:38:23;1.10;92.90
68476;DHT22;55464;48.266;14.188;2022-12-22T05:40:49;1.00;93.10
68476;DHT22;55464;48.266;14.188;2022-12-22T05:43:14;1.00;93.30
68476;DHT22;55464;48.266;14.188;2022-12-22T05:45:43;1.00;93.40
68476;DHT22;55464;48.266;14.188;2022-12-22T05:48:10;1.00;93.40
68476;DHT22;55464;48.266;14.188;2022-12-22T05:50:35;1.00;93.40
68476;DHT22;55464;48.266;14.188;2022-12-22T05:53:01;1.00;93.70
68476;DHT22;55464;48.266;14.188;2022-12-22T05:55:27;1.00;93.60
68476;DHT22;55464;48.266;14.188;2022-12-22T05:57:52;1.10;93.80
68476;DHT22;55464;48.266;14.188;2022-12-22T06:00:18;1.00;93.80
68476;DHT22;55464;48.266;14.188;2022-12-22T06:02:44;1.00;93.70
68476;DHT22;55464;48.266;14.188;2022-12-22T06:05:11;1.00;93.80
68476;DHT22;55464;48.266;14.188;2022-12-22T06:07:38;1.10;93.80
68476;DHT22;55464;48.266;14.188;2022-12-22T06:10:07;1.10;93.70
68476;DHT22;55464;48.266;14.188;2022-12-22T06:12:34;1.10;93.70
68476;DHT22;55464;48.266;14.188;2022-12-22T06:14:59;1.10;93.40
68476;DHT22;55464;48.266;14.188;2022-12-22T06:17:25;1.10;93.60
68476;DHT22;55464;48.266;14.188;2022-12-22T06:19:51;1.00;93.60
68476;DHT22;55464;48.266;14.188;2022-12-22T06:22:16;1.00;93.70
68476;DHT22;55464;48.266;14.188;2022-12-22T06:24:42;1.00;94.00
68476;DHT22;55464;48.266;14.188;2022-12-22T06:27:08;1.10;94.00
68476;DHT22;55464;48.266;14.188;2022-12-22T06:29:35;1.10;94.10
68476;DHT22;55464;48.266;14.188;2022-12-22T06:32:01;1.10;94.00
68476;DHT22;55464;48.266;14.188;2022-12-22T06:34:27;1.10;93.90
68476;DHT22;55464;48.266;14.188;2022-12-22T06:36:52;1.10;93.80
68476;DHT22;55464;48.266;14.188;2022-12-22T06:39:18;1.00;93.90
68476;DHT22;55464;48.266;14.188;2022-12-22T06:41:44;1.10;94.00
68476;DHT22;55464;48.266;14.188;2022-12-22T06:44:28;1.20;94.00
68476;DHT22;55464;48.266;14.188;2022-12-22T06:46:54;1.20;93.80
68476;DHT22;55464;48.266;14.188;2022-12-22T06:49:19;1.30;93.70
68476;DHT22;55464;48.266;14.188;2022-12-22T06:51:45;1.30;93.50
68476;DHT22;55464;48.266;14.188;2022-12-22T06:54:11;1.30;93.50
68476;DHT22;55464;48.266;14.188;2022-12-22T06:56:37;1.30;93.30
68476;DHT22;55464;48.266;14.188;2022-12-22T06:59:02;1.40;92.90
68476;DHT22;55464;48.266;14.188;2022-12-22T07:01:28;1.30;92.50
68476;DHT22;55464;48.266;14.188;2022-12-22T07:03:54;1.30;92.90
68476;DHT22;55464;48.266;14.188;2022-12-22T07:06:20;1.20;92.90
68476;DHT22;55464;48.266;14.188;2022-12-22T07:08:46;1.10;93.40
68476;DHT22;55464;48.266;14.188;2022-12-22T07:11:13;1.10;93.90
68476;DHT22;55464;48.266;14.188;2022-12-22T07:13:40;1.10;93.90
68476;DHT22;55464;48.266;14.188;2022-12-22T07:16:07;1.10;93.80
68476;DHT22;55464;48.266;14.188;2022-12-22T07:18:40;1.10;93.90
68476;DHT22;55464;48.266;14.188;2022-12-22T07:21:08;1.00;93.90
68476;DHT22;55464;48.266;14.188;2022-12-22T07:23:35;1.10;93.90
68476;DHT22;55464;48.266;14.188;2022-12-22T07:26:01;1.10;93.80
68476;DHT22;55464;48.266;14.188;2022-12-22T07:28:27;1.10;93.50
68476;DHT22;55464;48.266;14.188;2022-12-22T07:30:53;1.00;93.80
68476;DHT22;55464;48.266;14.188;2022-12-22T07:33:19;1.00;94.20
68476;DHT22;55464;48.266;14.188;2022-12-22T07:35:45;1.10;94.00
68476;DHT22;55464;48.266;14.188;2022-12-22T07:38:11;1.10;93.70
68476;DHT22;55464;48.266;14.188;2022-12-22T07:40:36;1.10;93.70
68476;DHT22;55464;48.266;14.188;2022-12-22T07:43:02;1.10;93.80
68476;DHT22;55464;48.266;14.188;2022-12-22T07:45:28;1.10;93.60
68476;DHT22;55464;48.266;14.188;2022-12-22T07:48:00;1.10;93.70
68476;DHT22;55464;48.266;14.188;2022-12-22T07:50:27;1.20;93.70
68476;DHT22;55464;48.266;14.188;2022-12-22T07:52:58;1.20;93.50
68476;DHT22;55464;48.266;14.188;2022-12-22T07:55:25;1.20;93.30
68476;DHT22;55464;48.266;14.188;2022-12-22T07:57:52;1.10;93.50
68476;DHT22;55464;48.266;14.188;2022-12-22T08:00:18;1.10;93.30
68476;DHT22;55464;48.266;14.188;2022-12-22T08:02:48;1.10;93.50
68476;DHT22;55464;48.266;14.188;2022-12-22T08:05:14;1.20;93.40
68476;DHT22;55464;48.266;14.188;2022-12-22T08:07:40;1.20;93.20
68476;DHT22;55464;48.266;14.188;2022-12-22T08:10:07;1.20;93.30
68476;DHT22;55464;48.266;14.188;2022-12-22T08:12:32;1.20;93.20
68476;DHT22;55464;48.266;14.188;2022-12-22T08:14:58;1.10;93.50
68476;DHT22;55464;48.266;14.188;2022-12-22T08:17:26;1.10;93.80
68476;DHT22;55464;48.266;14.188;2022-12-22T08:19:53;1.00;93.80
68476;DHT22;55464;48.266;14.188;2022-12-22T08:22:19;1.00;94.10
68476;DHT22;55464;48.266;14.188;2022-12-22T08:24:49;1.00;94.20
68476;DHT22;55464;48.266;14.188;2022-12-22T08:27:16;1.10;94.20
68476;DHT22;55464;48.266;14.188;2022-12-22T08:29:46;1.20;94.00
68476;DHT22;55464;48.266;14.188;2022-12-22T08:32:12;1.20;93.70
68476;DHT22;55464;48.266;14.188;2022-12-22T08:34:38;1.30;93.70
68476;DHT22;55464;48.266;14.188;2022-12-22T08:37:08;1.20;93.60
68476;DHT22;55464;48.266;14.188;2022-12-22T08:39:37;1.30;93.50
68476;DHT22;55464;48.266;14.188;2022-12-22T08:42:06;1.30;93.50
68476;DHT22;55464;48.266;14.188;2022-12-22T08:44:33;1.30;93.60
68476;DHT22;55464;48.266;14.188;2022-12-22T08:47:00;1.30;93.50
68476;DHT22;55464;48.266;14.188;2022-12-22T08:49:26;1.40;93.40
68476;DHT22;55464;48.266;14.188;2022-12-22T08:51:52;1.30;93.50
68476;DHT22;55464;48.266;14.188;2022-12-22T08:54:19;1.40;93.60
68476;DHT22;55464;48.266;14.188;2022-12-22T08:56:45;1.40;93.50
68476;DHT22;55464;48.266;14.188;2022-12-22T08:59:11;1.40;93.40
68476;DHT22;55464;48.266;14.188;2022-12-22T09:01:40;1.40;93.40
68476;DHT22;55464;48.266;14.188;2022-12-22T09:04:10;1.40;93.40
68476;DHT22;55464;48.266;14.188;2022-12-22T09:06:36;1.40;93.50
68476;DHT22;55464;48.266;14.188;2022-12-22T09:09:05;1.40;93.50
68476;DHT22;55464;48.266;14.188;2022-12-22T09:11:32;1.40;93.50
68476;DHT22;55464;48.266;14.188;2022-12-22T09:14:00;1.50;93.60
68476;DHT22;55464;48.266;14.188;2022-12-22T09:16:28;1.60;93.70
68476;DHT22;55464;48.266;14.188;2022-12-22T09:18:54;1.60;93.70
68476;DHT22;55464;48.266;14.188;2022-12-22T09:21:21;1.60;93.80
68476;DHT22;55464;48.266;14.188;2022-12-22T09:23:47;1.60;93.70
68476;DHT22;55464;48.266;14.188;2022-12-22T09:26:16;1.70;93.70
68476;DHT22;55464;48.266;14.188;2022-12-22T09:28:42;1.70;93.70
68476;DHT22;55464;48.266;14.188;2022-12-22T09:31:09;1.80;93.70
68476;DHT22;55464;48.266;14.188;2022-12-22T09:33:35;1.80;93.70
68476;DHT22;55464;48.266;14.188;2022-12-22T09:36:09;1.90;93.60
68476;DHT22;55464;48.266;14.188;2022-12-22T09:38:36;2.00;93.60
68476;DHT22;55464;48.266;14.188;2022-12-22T09:43:47;2.00;93.50
68476;DHT22;55464;48.266;14.188;2022-12-22T09:46:34;2.00;93.40
68476;DHT22;55464;48.266;14.188;2022-12-22T09:49:01;2.00;93.50
68476;DHT22;55464;48.266;14.188;2022-12-22T09:51:28;2.00;93.60
68476;DHT22;55464;48.266;14.188;2022-12-22T09:53:57;2.10;93.50
68476;DHT22;55464;48.266;14.188;2022-12-22T09:56:27;2.10;93.50
68476;DHT22;55464;48.266;14.188;2022-12-22T09:58:53;2.10;93.60
68476;DHT22;55464;48.266;14.188;2022-12-22T10:01:35;2.20;93.60
68476;DHT22;55464;48.266;14.188;2022-12-22T10:04:27;2.20;93.50
68476;DHT22;55464;48.266;14.188;2022-12-22T10:07:51;2.20;93.50
68476;DHT22;55464;48.266;14.188;2022-12-22T10:10:25;2.30;93.50
68476;DHT22;55464;48.266;14.188;2022-12-22T10:13:03;2.30;93.40
68476;DHT22;55464;48.266;14.188;2022-12-22T10:15:37;2.30;93.50
68476;DHT22;55464;48.266;14.188;2022-12-22T10:18:17;2.50;93.70
68476;DHT22;55464;48.266;14.188;2022-12-22T10:23:31;2.80;93.50
68476;DHT22;55464;48.266;14.188;2022-12-22T10:26:09;2.90;93.20
68476;DHT22;55464;48.266;14.188;2022-12-22T10:28:51;2.90;92.90
68476;DHT22;55464;48.266;14.188;2022-12-22T10:31:27;2.90;92.80
68476;DHT22;55464;48.266;14.188;2022-12-22T10:33:55;3.00;92.60
68476;DHT22;55464;48.266;14.188;2022-12-22T10:36:27;3.00;92.60
68476;DHT22;55464;48.266;14.188;2022-12-22T10:39:03;3.00;92.50
68476;DHT22;55464;48.266;14.188;2022-12-22T10:41:56;3.00;92.30
68476;DHT22;55464;48.266;14.188;2022-12-22T10:44:29;3.00;92.50
68476;DHT22;55464;48.266;14.188;2022-12-22T10:47:00;3.00;92.80
68476;DHT22;55464;48.266;14.188;2022-12-22T10:49:40;3.00;92.80
68476;DHT22;55464;48.266;14.188;2022-12-22T10:52:15;3.00;92.70
68476;DHT22;55464;48.266;14.188;2022-12-22T10:54:42;3.00;92.50
68476;DHT22;55464;48.266;14.188;2022-12-22T11:00:00;2.90;92.30
68476;DHT22;55464;48.266;14.188;2022-12-22T11:05:01;3.00;92.30
68476;DHT22;55464;48.266;14.188;2022-12-22T11:07:30;3.10;91.50
68476;DHT22;55464;48.266;14.188;2022-12-22T11:09:57;3.00;90.90
68476;DHT22;55464;48.266;14.188;2022-12-22T11:12:32;3.10;91.30
68476;DHT22;55464;48.266;14.188;2022-12-22T11:17:58;3.40;90.50
68476;DHT22;55464;48.266;14.188;2022-12-22T11:20:50;3.50;90.10
68476;DHT22;55464;48.266;14.188;2022-12-22T11:35:21;4.00;89.10
68476;DHT22;55464;48.266;14.188;2022-12-22T11:40:43;4.30;88.70
68476;DHT22;55464;48.266;14.188;2022-12-22T11:43:49;4.80;87.30
68476;DHT22;55464;48.266;14.188;2022-12-22T11:56:47;5.10;85.10
68476;DHT22;55464;48.266;14.188;2022-12-22T12:10:26;3.80;88.80
68476;DHT22;55464;48.266;14.188;2022-12-22T12:15:46;4.00;89.00
68476;DHT22;55464;48.266;14.188;2022-12-22T12:21:15;4.80;86.80
68476;DHT22;55464;48.266;14.188;2022-12-22T12:29:28;5.00;86.20
68476;DHT22;55464;48.266;14.188;2022-12-22T12:32:03;5.10;86.30
68476;DHT22;55464;48.266;14.188;2022-12-22T12:34:35;5.40;84.60
68476;DHT22;55464;48.266;14.188;2022-12-22T12:37:32;5.00;84.50
68476;DHT22;55464;48.266;14.188;2022-12-22T12:42:52;4.80;85.40
68476;DHT22;55464;48.266;14.188;2022-12-22T12:45:39;4.80;85.50
68476;DHT22;55464;48.266;14.188;2022-12-22T12:50:50;4.50;86.40
68476;DHT22;55464;48.266;14.188;2022-12-22T12:53:20;4.60;86.40
68476;DHT22;55464;48.266;14.188;2022-12-22T13:01:01;4.20;87.50
68476;DHT22;55464;48.266;14.188;2022-12-22T13:06:01;4.20;87.80
68476;DHT22;55464;48.266;14.188;2022-12-22T13:08:29;4.10;88.00
68476;DHT22;55464;48.266;14.188;2022-12-22T13:21:02;5.10;85.10
68476;DHT22;55464;48.266;14.188;2022-12-22T13:23:37;5.00;85.10
68476;DHT22;55464;48.266;14.188;2022-12-22T13:26:14;4.80;85.30
68476;DHT22;55464;48.266;14.188;2022-12-22T13:28:44;4.50;87.50
68476;DHT22;55464;48.266;14.188;2022-12-22T13:31:33;4.40;87.30
68476;DHT22;55464;48.266;14.188;2022-12-22T13:36:45;4.20;88.50
68476;DHT22;55464;48.266;14.188;2022-12-22T13:39:14;4.10;88.30
68476;DHT22;55464;48.266;14.188;2022-12-22T13:41:45;3.90;88.20
68476;DHT22;55464;48.266;14.188;2022-12-22T13:44:16;4.10;86.80
68476;DHT22;55464;48.266;14.188;2022-12-22T13:46:43;3.90;87.00
68476;DHT22;55464;48.266;14.188;2022-12-22T13:49:16;3.80;87.50
68476;DHT22;55464;48.266;14.188;2022-12-22T13:51:42;3.60;88.30
68476;DHT22;55464;48.266;14.188;2022-12-22T13:54:23;3.50;89.80
68476;DHT22;55464;48.266;14.188;2022-12-22T13:56:55;3.50;90.30
68476;DHT22;55464;48.266;14.188;2022-12-22T13:59:33;3.50;90.70
68476;DHT22;55464;48.266;14.188;2022-12-22T14:02:02;3.50;91.00
68476;DHT22;55464;48.266;14.188;2022-12-22T14:04:29;3.60;90.90
68476;DHT22;55464;48.266;14.188;2022-12-22T14:06:55;3.60;90.70
68476;DHT22;55464;48.266;14.188;2022-12-22T14:09:23;3.70;90.50
68476;DHT22;55464;48.266;14.188;2022-12-22T14:14:27;3.60;90.90
68476;DHT22;55464;48.266;14.188;2022-12-22T14:16:56;3.60;91.00
68476;DHT22;55464;48.266;14.188;2022-12-22T14:19:22;3.60;91.10
68476;DHT22;55464;48.266;14.188;2022-12-22T14:22:06;3.50;91.30
68476;DHT22;55464;48.266;14.188;2022-12-22T14:24:40;3.50;91.30
68476;DHT22;55464;48.266;14.188;2022-12-22T14:27:16;3.50;91.40
68476;DHT22;55464;48.266;14.188;2022-12-22T14:29:44;3.50;91.70
68476;DHT22;55464;48.266;14.188;2022-12-22T14:32:11;3.50;91.30
68476;DHT22;55464;48.266;14.188;2022-12-22T14:34:56;3.40;91.40
68476;DHT22;55464;48.266;14.188;2022-12-22T14:37:25;3.40;91.90
68476;DHT22;55464;48.266;14.188;2022-12-22T14:39:54;3.50;92.00
68476;DHT22;55464;48.266;14.188;2022-12-22T14:42:20;3.50;92.10
68476;DHT22;55464;48.266;14.188;2022-12-22T14:44:47;3.50;92.20
68476;DHT22;55464;48.266;14.188;2022-12-22T14:47:14;3.50;93.30
68476;DHT22;55464;48.266;14.188;2022-12-22T14:52:24;3.60;92.70
68476;DHT22;55464;48.266;14.188;2022-12-22T14:54:52;3.60;92.60
68476;DHT22;55464;48.266;14.188;2022-12-22T14:57:27;3.50;92.30
68476;DHT22;55464;48.266;14.188;2022-12-22T15:00:03;3.50;92.50
68476;DHT22;55464;48.266;14.188;2022-12-22T15:02:33;3.50;92.30
68476;DHT22;55464;48.266;14.188;2022-12-22T15:05:06;3.40;92.10
68476;DHT22;55464;48.266;14.188;2022-12-22T15:07:43;3.40;92.10
68476;DHT22;55464;48.266;14.188;2022-12-22T15:10:09;3.30;92.00
68476;DHT22;55464;48.266;14.188;2022-12-22T15:12:35;3.30;92.10
68476;DHT22;55464;48.266;14.188;2022-12-22T15:15:00;3.20;92.10
68476;DHT22;55464;48.266;14.188;2022-12-22T15:17:27;3.20;92.20
68476;DHT22;55464;48.266;14.188;2022-12-22T15:19:57;3.10;92.30
68476;DHT22;55464;48.266;14.188;2022-12-22T15:22:23;3.20;92.50
68476;DHT22;55464;48.266;14.188;2022-12-22T15:24:49;3.10;92.40
68476;DHT22;55464;48.266;14.188;2022-12-22T15:27:14;3.20;92.50
68476;DHT22;55464;48.266;14.188;2022-12-22T15:29:40;3.20;92.70
68476;DHT22;55464;48.266;14.188;2022-12-22T15:32:10;3.20;92.70
68476;DHT22;55464;48.266;14.188;2022-12-22T15:34:37;3.20;92.50
68476;DHT22;55464;48.266;14.188;2022-12-22T15:37:02;3.10;92.50
68476;DHT22;55464;48.266;14.188;2022-12-22T15:39:28;3.20;92.80
68476;DHT22;55464;48.266;14.188;2022-12-22T15:41:53;3.20;92.90
68476;DHT22;55464;48.266;14.188;2022-12-22T15:44:19;3.20;93.10
68476;DHT22;55464;48.266;14.188;2022-12-22T15:46:54;3.10;93.00
68476;DHT22;55464;48.266;14.188;2022-12-22T15:49:22;3.10;93.00
68476;DHT22;55464;48.266;14.188;2022-12-22T15:51:52;3.10;93.10
68476;DHT22;55464;48.266;14.188;2022-12-22T15:54:19;3.20;93.10
68476;DHT22;55464;48.266;14.188;2022-12-22T15:56:45;3.20;93.40
68476;DHT22;55464;48.266;14.188;2022-12-22T15:59:15;3.30;93.40
68476;DHT22;55464;48.266;14.188;2022-12-22T16:01:41;3.20;93.60
68476;DHT22;55464;48.266;14.188;2022-12-22T16:04:07;3.30;93.60
68476;DHT22;55464;48.266;14.188;2022-12-22T16:06:33;3.20;93.60
68476;DHT22;55464;48.266;14.188;2022-12-22T16:08:59;3.30;93.80
68476;DHT22;55464;48.266;14.188;2022-12-22T16:11:24;3.30;94.10
68476;DHT22;55464;48.266;14.188;2022-12-22T16:13:50;3.40;94.20
68476;DHT22;55464;48.266;14.188;2022-12-22T16:16:16;3.40;94.30
68476;DHT22;55464;48.266;14.188;2022-12-22T16:18:42;3.40;94.20
68476;DHT22;55464;48.266;14.188;2022-12-22T16:21:16;3.40;94.20
68476;DHT22;55464;48.266;14.188;2022-12-22T16:23:45;3.50;94.70
68476;DHT22;55464;48.266;14.188;2022-12-22T16:26:17;3.50;94.60
68476;DHT22;55464;48.266;14.188;2022-12-22T16:28:44;3.60;94.90
68476;DHT22;55464;48.266;14.188;2022-12-22T16:31:30;3.60;94.70
68476;DHT22;55464;48.266;14.188;2022-12-22T16:33:55;3.60;94.60
68476;DHT22;55464;48.266;14.188;2022-12-22T16:36:21;3.60;94.60
68476;DHT22;55464;48.266;14.188;2022-12-22T16:38:46;3.60;94.50
68476;DHT22;55464;48.266;14.188;2022-12-22T16:41:23;3.60;94.50
68476;DHT22;55464;48.266;14.188;2022-12-22T16:43:51;3.60;94.20
68476;DHT22;55464;48.266;14.188;2022-12-22T16:46:19;3.60;94.30
68476;DHT22;55464;48.266;14.188;2022-12-22T16:48:52;3.50;94.20
68476;DHT22;55464;48.266;14.188;2022-12-22T16:51:24;3.50;94.20
68476;DHT22;55464;48.266;14.188;2022-12-22T16:53:50;3.50;94.20
68476;DHT22;55464;48.266;14.188;2022-12-22T16:56:22;3.50;94.10
68476;DHT22;55464;48.266;14.188;2022-12-22T16:58:49;3.50;94.00
68476;DHT22;55464;48.266;14.188;2022-12-22T17:01:42;3.50;94.10
68476;DHT22;55464;48.266;14.188;2022-12-22T17:04:15;3.50;94.00
68476;DHT22;55464;48.266;14.188;2022-12-22T17:06:42;3.50;94.10
68476;DHT22;55464;48.266;14.188;2022-12-22T17:09:13;3.40;94.00
68476;DHT22;55464;48.266;14.188;2022-12-22T17:11:40;3.40;94.10
68476;DHT22;55464;48.266;14.188;2022-12-22T17:14:31;3.40;94.40
68476;DHT22;55464;48.266;14.188;2022-12-22T17:16:57;3.50;94.50
68476;DHT22;55464;48.266;14.188;2022-12-22T17:19:23;3.40;94.50
68476;DHT22;55464;48.266;14.188;2022-12-22T17:21:49;3.40;94.50
68476;DHT22;55464;48.266;14.188;2022-12-22T17:24:18;3.40;94.50
68476;DHT22;55464;48.266;14.188;2022-12-22T17:26:46;3.50;94.50
68476;DHT22;55464;48.266;14.188;2022-12-22T17:29:14;3.60;94.80
68476;DHT22;55464;48.266;14.188;2022-12-22T17:31:41;3.70;94.90
68476;DHT22;55464;48.266;14.188;2022-12-22T17:34:14;3.70;95.10
68476;DHT22;55464;48.266;14.188;2022-12-22T17:36:41;3.80;95.20
68476;DHT22;55464;48.266;14.188;2022-12-22T17:39:12;4.00;95.30
68476;DHT22;55464;48.266;14.188;2022-12-22T17:41:39;4.10;95.40
68476;DHT22;55464;48.266;14.188;2022-12-22T17:44:08;4.10;95.50
68476;DHT22;55464;48.266;14.188;2022-12-22T17:46:36;4.10;95.50
68476;DHT22;55464;48.266;14.188;2022-12-22T17:49:02;4.10;95.50
68476;DHT22;55464;48.266;14.188;2022-12-22T17:51:28;4.10;95.60
68476;DHT22;55464;48.266;14.188;2022-12-22T17:53:56;4.20;95.60